Maria Schulte — C4NZ2 — position and weather

sailwx.info

Track history (hours):
 
Tides and Currents Weather Stations Pressure Air Temp Water Temp Dewpoint Dewpoint Depression Visibility Wind Speed Wind Dir Waves Ship Positions

Maria Schulte

Last reported at 2017-Sep-18 02:38 UTC. Time now 2017-Sep-23 07:15 UTC.
Position N 01°14' E 104°01'.

Length 231 m; draft 8.9 m.

Type: Ship (hazmat cat A). MMSI: 210346000.

Date/timePositionNaut miles runAvg speedWind from/ knotsBaromVisibWave heightAir tempDewpointWater temp
2017-Sep-18 02:38N 01°14' E 104°01'616.4
2017-Sep-18 02:16N 01°13' E 103°55'416.1
2017-Sep-18 02:00N 01°11' E 103°51'815.3
2017-Sep-18 01:30N 01°07' E 103°45'714.7
2017-Sep-18 01:00N 01°03' E 103°39'917.1
2017-Sep-18 00:30N 01°08' E 103°31'916.9
2017-Sep-17 23:57N 01°12' E 103°23'7 0.2
2017-Sep-16 04:44N 01°19' E 103°20'413.4
2017-Sep-16 04:28N 01°16' E 103°23'612.9
2017-Sep-16 04:00N 01°13' E 103°28'613.0
2017-Sep-16 03:30N 01°12' E 103°34'510.6
2017-Sep-16 03:01N 01°12' E 103°40'611.8
2017-Sep-16 02:30N 01°16' E 103°44'3 4.9
2017-Sep-16 01:58N 01°16' E 103°47'0 0.0
2017-Sep-16 01:28N 01°16' E 103°47'0 0.0
2017-Sep-16 00:58N 01°16' E 103°47'0 0.0
2017-Sep-16 00:28N 01°16' E 103°47'0 0.0
2017-Sep-15 23:58N 01°16' E 103°47'0 0.0
2017-Sep-15 23:28N 01°16' E 103°47'0 0.0
2017-Sep-15 22:58N 01°16' E 103°47'0 0.0
2017-Sep-15 22:28N 01°16' E 103°47'0 0.0
2017-Sep-15 21:58N 01°16' E 103°47'0 0.0
2017-Sep-15 21:22N 01°16' E 103°47'0 0.0
2017-Sep-15 20:58N 01°16' E 103°47'0 0.0
2017-Sep-15 20:28N 01°16' E 103°47'0 0.0
2017-Sep-15 19:58N 01°16' E 103°47'0 0.0
2017-Sep-15 19:28N 01°16' E 103°47'0 0.0
2017-Sep-15 18:58N 01°16' E 103°47'0 0.0
2017-Sep-15 18:28N 01°16' E 103°47'0 0.0
2017-Sep-15 17:58N 01°16' E 103°47'0 0.0
2017-Sep-15 17:28N 01°16' E 103°47'0 0.0
2017-Sep-15 16:49N 01°16' E 103°47'0 0.0
2017-Sep-15 16:28N 01°16' E 103°47'0 0.0
2017-Sep-15 15:58N 01°16' E 103°47'0 0.0
2017-Sep-15 15:25N 01°16' E 103°47'0 0.0
2017-Sep-15 14:58N 01°16' E 103°47'0 0.0
2017-Sep-15 14:28N 01°16' E 103°47'0 0.0
2017-Sep-15 13:55N 01°16' E 103°47'0 0.0
2017-Sep-15 13:28N 01°16' E 103°47'0 0.0
2017-Sep-15 12:58N 01°16' E 103°47'0 0.0
2017-Sep-15 12:28N 01°16' E 103°47'0 0.0
2017-Sep-15 11:58N 01°16' E 103°47'0 0.0
2017-Sep-15 11:28N 01°16' E 103°47'0 0.0
2017-Sep-15 10:55N 01°16' E 103°47'0 0.0
2017-Sep-15 10:28N 01°16' E 103°47'0 0.0
2017-Sep-15 09:58N 01°16' E 103°47'0 0.0
2017-Sep-15 09:28N 01°16' E 103°47'0 0.0
2017-Sep-15 08:58N 01°16' E 103°47'0 0.0
2017-Sep-15 08:30N 01°16' E 103°47'1 2.7
2017-Sep-15 08:00N 01°15' E 103°47'3 5.3
2017-Sep-15 07:31N 01°13' E 103°49'611.3
2017-Sep-15 07:00N 01°14' E 103°54'4 7.3
2017-Sep-15 06:26N 01°15' E 103°58'  
2017-Sep-08 14:10N 33°60' E 134°55'617.8
2017-Sep-08 13:50N 34°06' E 134°55'617.4
2017-Sep-08 13:30N 34°11' E 134°57'814.1
2017-Sep-08 12:58N 34°18' E 134°59'817.3
2017-Sep-08 12:30N 34°25' E 135°04'919.0
2017-Sep-08 12:00N 34°33' E 135°11'714.9
2017-Sep-08 11:30N 34°39' E 135°16'2 3.0
2017-Sep-08 11:00N 34°40' E 135°14'0 0.0
2017-Sep-08 10:30N 34°40' E 135°14'0 0.0
2017-Sep-08 10:00N 34°40' E 135°14'0 0.0
2017-Sep-08 09:24N 34°40' E 135°14'0 0.0
2017-Sep-08 08:54N 34°40' E 135°14'0 0.0
2017-Sep-08 08:30N 34°40' E 135°14'0 0.0
2017-Sep-08 08:00N 34°40' E 135°14'0 0.0
2017-Sep-08 07:30N 34°40' E 135°14'0 0.0
2017-Sep-08 07:00N 34°40' E 135°14'0 0.0
2017-Sep-08 06:24N 34°40' E 135°14'0 0.0
2017-Sep-08 06:00N 34°40' E 135°14'0 0.0
2017-Sep-08 05:30N 34°40' E 135°14'0 0.0
2017-Sep-08 04:00N 34°40' E 135°14'0 0.0
2017-Sep-08 03:24N 34°40' E 135°14'0 0.0
2017-Sep-08 03:00N 34°40' E 135°14'  
Track history (hours):
 
Tides and Currents Weather Stations Pressure Air Temp Water Temp Dewpoint Dewpoint Depression Visibility Wind Speed Wind Dir Waves Ship Positions

Maria Schulte

Last reported at 2017-Sep-18 02:38 UTC. Time now 2017-Sep-23 07:15 UTC.
Position N 01°14' E 104°01'.

Length 231 m; draft 8.9 m.

Type: Ship (hazmat cat A). MMSI: 210346000.

Date/timePositionNaut miles runAvg speedWind from/ knotsBaromVisibWave heightAir tempDewpointWater temp
2017-Sep-18 02:38N 01°14' E 104°01'616.4
2017-Sep-18 02:16N 01°13' E 103°55'416.1
2017-Sep-18 02:00N 01°11' E 103°51'815.3
2017-Sep-18 01:30N 01°07' E 103°45'714.7
2017-Sep-18 01:00N 01°03' E 103°39'917.1
2017-Sep-18 00:30N 01°08' E 103°31'916.9
2017-Sep-17 23:57N 01°12' E 103°23'7 0.2
2017-Sep-16 04:44N 01°19' E 103°20'413.4
2017-Sep-16 04:28N 01°16' E 103°23'612.9
2017-Sep-16 04:00N 01°13' E 103°28'613.0
2017-Sep-16 03:30N 01°12' E 103°34'510.6
2017-Sep-16 03:01N 01°12' E 103°40'611.8
2017-Sep-16 02:30N 01°16' E 103°44'3 4.9
2017-Sep-16 01:58N 01°16' E 103°47'0 0.0
2017-Sep-16 01:28N 01°16' E 103°47'0 0.0
2017-Sep-16 00:58N 01°16' E 103°47'0 0.0
2017-Sep-16 00:28N 01°16' E 103°47'0 0.0
2017-Sep-15 23:58N 01°16' E 103°47'0 0.0
2017-Sep-15 23:28N 01°16' E 103°47'0 0.0
2017-Sep-15 22:58N 01°16' E 103°47'0 0.0
2017-Sep-15 22:28N 01°16' E 103°47'0 0.0
2017-Sep-15 21:58N 01°16' E 103°47'0 0.0
2017-Sep-15 21:22N 01°16' E 103°47'0 0.0
2017-Sep-15 20:58N 01°16' E 103°47'0 0.0
2017-Sep-15 20:28N 01°16' E 103°47'0 0.0
2017-Sep-15 19:58N 01°16' E 103°47'0 0.0
2017-Sep-15 19:28N 01°16' E 103°47'0 0.0
2017-Sep-15 18:58N 01°16' E 103°47'0 0.0
2017-Sep-15 18:28N 01°16' E 103°47'0 0.0
2017-Sep-15 17:58N 01°16' E 103°47'0 0.0
2017-Sep-15 17:28N 01°16' E 103°47'0 0.0
2017-Sep-15 16:49N 01°16' E 103°47'0 0.0
2017-Sep-15 16:28N 01°16' E 103°47'0 0.0
2017-Sep-15 15:58N 01°16' E 103°47'0 0.0
2017-Sep-15 15:25N 01°16' E 103°47'0 0.0
2017-Sep-15 14:58N 01°16' E 103°47'0 0.0
2017-Sep-15 14:28N 01°16' E 103°47'0 0.0
2017-Sep-15 13:55N 01°16' E 103°47'0 0.0
2017-Sep-15 13:28N 01°16' E 103°47'0 0.0
2017-Sep-15 12:58N 01°16' E 103°47'0 0.0
2017-Sep-15 12:28N 01°16' E 103°47'0 0.0
2017-Sep-15 11:58N 01°16' E 103°47'0 0.0
2017-Sep-15 11:28N 01°16' E 103°47'0 0.0
2017-Sep-15 10:55N 01°16' E 103°47'0 0.0
2017-Sep-15 10:28N 01°16' E 103°47'0 0.0
2017-Sep-15 09:58N 01°16' E 103°47'0 0.0
2017-Sep-15 09:28N 01°16' E 103°47'0 0.0
2017-Sep-15 08:58N 01°16' E 103°47'0 0.0
2017-Sep-15 08:30N 01°16' E 103°47'1 2.7
2017-Sep-15 08:00N 01°15' E 103°47'3 5.3
2017-Sep-15 07:31N 01°13' E 103°49'611.3
2017-Sep-15 07:00N 01°14' E 103°54'4 7.3
2017-Sep-15 06:26N 01°15' E 103°58'  
2017-Sep-08 14:10N 33°60' E 134°55'617.8
2017-Sep-08 13:50N 34°06' E 134°55'617.4
2017-Sep-08 13:30N 34°11' E 134°57'814.1
2017-Sep-08 12:58N 34°18' E 134°59'817.3
2017-Sep-08 12:30N 34°25' E 135°04'919.0
2017-Sep-08 12:00N 34°33' E 135°11'714.9
2017-Sep-08 11:30N 34°39' E 135°16'2 3.0
2017-Sep-08 11:00N 34°40' E 135°14'0 0.0
2017-Sep-08 10:30N 34°40' E 135°14'0 0.0
2017-Sep-08 10:00N 34°40' E 135°14'0 0.0
2017-Sep-08 09:24N 34°40' E 135°14'0 0.0
2017-Sep-08 08:54N 34°40' E 135°14'0 0.0
2017-Sep-08 08:30N 34°40' E 135°14'0 0.0
2017-Sep-08 08:00N 34°40' E 135°14'0 0.0
2017-Sep-08 07:30N 34°40' E 135°14'0 0.0
2017-Sep-08 07:00N 34°40' E 135°14'0 0.0
2017-Sep-08 06:24N 34°40' E 135°14'0 0.0
2017-Sep-08 06:00N 34°40' E 135°14'0 0.0
2017-Sep-08 05:30N 34°40' E 135°14'0 0.0
2017-Sep-08 04:00N 34°40' E 135°14'0 0.0
2017-Sep-08 03:24N 34°40' E 135°14'0 0.0
2017-Sep-08 03:00N 34°40' E 135°14'  

Dump ship's entire track history